createdAt,value
2023-05-14T00:00:25.219Z,13.60
2023-05-14T00:02:52.506Z,13.60
2023-05-14T00:05:19.686Z,13.50
2023-05-14T00:07:46.887Z,13.60
2023-05-14T00:10:13.895Z,13.50
2023-05-14T00:12:41.049Z,13.50
2023-05-14T00:15:11.128Z,13.50
2023-05-14T00:17:39.123Z,13.60
2023-05-14T00:20:09.613Z,13.60
2023-05-14T00:22:40.272Z,13.50
2023-05-14T00:25:08.616Z,13.50
2023-05-14T00:27:38.337Z,13.40
2023-05-14T00:30:09.110Z,13.40
2023-05-14T00:32:36.716Z,13.40
2023-05-14T00:35:04.558Z,13.20
2023-05-14T00:37:31.754Z,13.10
2023-05-14T00:39:58.927Z,13.10
2023-05-14T00:42:27.365Z,13.10
2023-05-14T00:44:54.495Z,13.20
2023-05-14T00:47:21.545Z,13.10
2023-05-14T00:49:48.610Z,13.10
2023-05-14T00:52:15.839Z,13.00
2023-05-14T00:54:42.953Z,13.00
2023-05-14T00:57:10.009Z,13.10
2023-05-14T00:59:37.264Z,13.00
2023-05-14T01:02:04.359Z,13.00
2023-05-14T01:04:31.450Z,12.90
2023-05-14T01:07:09.956Z,12.90
2023-05-14T01:09:49.203Z,12.90
2023-05-14T01:12:22.642Z,12.80
2023-05-14T01:14:55.188Z,12.80
2023-05-14T01:17:23.181Z,12.70
2023-05-14T01:19:50.211Z,12.70
2023-05-14T01:22:17.200Z,12.60
2023-05-14T01:24:44.202Z,12.60
2023-05-14T01:27:17.700Z,12.60
2023-05-14T01:29:50.159Z,12.60
2023-05-14T01:32:17.173Z,12.60
2023-05-14T01:34:44.170Z,12.60
2023-05-14T01:37:11.168Z,12.60
2023-05-14T01:39:41.137Z,12.60
2023-05-14T01:42:08.616Z,12.50
2023-05-14T01:44:35.675Z,12.50
2023-05-14T01:47:02.694Z,12.50
2023-05-14T01:49:29.797Z,12.50
2023-05-14T01:51:56.893Z,12.50
2023-05-14T01:54:23.921Z,12.50
2023-05-14T01:56:51.809Z,12.50
2023-05-14T01:59:18.861Z,12.50
2023-05-14T02:01:45.910Z,12.40
2023-05-14T02:04:13.006Z,12.40
2023-05-14T02:06:40.050Z,12.40
2023-05-14T02:09:07.215Z,12.40
2023-05-14T02:11:34.286Z,12.40
2023-05-14T02:14:01.275Z,12.30
2023-05-14T02:16:28.347Z,12.30
2023-05-14T02:18:55.538Z,12.30
2023-05-14T02:21:22.629Z,12.30
2023-05-14T02:23:50.365Z,12.30
2023-05-14T02:26:17.454Z,12.20
2023-05-14T02:28:45.801Z,12.20
2023-05-14T02:31:12.987Z,12.30
2023-05-14T02:33:40.109Z,12.20
2023-05-14T02:36:07.370Z,12.20
2023-05-14T02:38:34.369Z,12.10
2023-05-14T02:41:01.390Z,12.20
2023-05-14T02:43:28.472Z,12.10
2023-05-14T02:45:55.718Z,12.10
2023-05-14T02:48:22.770Z,12.10
2023-05-14T02:50:52.775Z,12.00
2023-05-14T02:53:19.799Z,12.00
2023-05-14T02:55:46.812Z,11.90
2023-05-14T02:58:13.930Z,11.90
2023-05-14T03:00:40.992Z,11.90
2023-05-14T03:03:08.731Z,11.90
2023-05-14T03:05:39.318Z,11.90
2023-05-14T03:08:07.046Z,11.80
2023-05-14T03:10:34.217Z,11.80
2023-05-14T03:13:01.242Z,11.80
2023-05-14T03:15:28.274Z,11.80
2023-05-14T03:17:55.383Z,11.80
2023-05-14T03:20:24.724Z,11.80
2023-05-14T03:22:52.170Z,11.80
2023-05-14T03:25:19.232Z,11.80
2023-05-14T03:27:46.435Z,11.70
2023-05-14T03:30:13.647Z,11.70
2023-05-14T03:32:41.414Z,11.70
2023-05-14T03:35:08.840Z,11.70
2023-05-14T03:37:35.886Z,11.70
2023-05-14T03:40:03.099Z,11.80
2023-05-14T03:42:30.124Z,11.80
2023-05-14T03:44:57.131Z,11.80
2023-05-14T05:02:55.492Z,12.00
2023-05-14T05:05:22.722Z,12.00
2023-05-14T05:07:49.800Z,12.00
2023-05-14T05:10:16.889Z,12.10
2023-05-14T05:12:44.013Z,12.10
2023-05-14T05:15:11.148Z,12.20
2023-05-14T05:17:38.301Z,12.10
2023-05-14T05:20:08.677Z,12.10
2023-05-14T05:22:36.895Z,12.20
2023-05-14T05:25:07.565Z,12.20
2023-05-14T05:27:34.613Z,12.20
2023-05-14T05:30:01.934Z,12.30
2023-05-14T05:32:28.956Z,12.30
2023-05-14T05:34:56.025Z,12.30
2023-05-14T05:37:23.020Z,12.20
2023-05-14T05:39:50.082Z,12.30
2023-05-14T05:42:17.104Z,12.30
2023-05-14T05:44:44.180Z,12.40
2023-05-14T05:47:11.194Z,12.40
2023-05-14T05:49:38.192Z,12.50
2023-05-14T05:52:05.426Z,12.50
2023-05-14T05:54:32.620Z,12.60
2023-05-14T05:56:59.781Z,12.60
2023-05-14T05:59:26.867Z,12.60
2023-05-14T06:01:53.895Z,12.60
2023-05-14T06:04:20.927Z,12.60
2023-05-14T06:06:47.991Z,12.70
2023-05-14T06:09:15.018Z,12.70
2023-05-14T06:11:42.074Z,12.80
2023-05-14T06:14:09.076Z,13.00
2023-05-14T06:16:36.552Z,13.10
2023-05-14T06:19:03.801Z,13.30
2023-05-14T06:21:31.010Z,13.60
2023-05-14T06:23:58.070Z,13.90
2023-05-14T06:26:25.201Z,14.20
2023-05-14T06:28:52.547Z,14.20
2023-05-14T06:31:19.718Z,14.10
2023-05-14T06:33:46.792Z,14.20
2023-05-14T06:36:14.013Z,14.40
2023-05-14T06:38:41.213Z,14.80
2023-05-14T06:41:08.220Z,14.90
2023-05-14T06:43:35.261Z,15.00
2023-05-14T06:46:02.321Z,14.80
2023-05-14T06:48:29.734Z,14.70
2023-05-14T06:50:56.846Z,14.90
2023-05-14T06:53:23.910Z,15.00
2023-05-14T06:55:51.032Z,15.10
2023-05-14T06:58:18.044Z,15.00
2023-05-14T07:00:45.120Z,14.80
2023-05-14T07:03:12.197Z,15.10
2023-05-14T07:05:40.977Z,15.10
2023-05-14T07:08:08.117Z,15.50
2023-05-14T07:10:35.110Z,15.80
2023-05-14T07:13:03.419Z,16.00
2023-05-14T07:15:30.679Z,16.00
2023-05-14T07:17:57.854Z,16.00
2023-05-14T07:20:25.509Z,16.10
2023-05-14T07:22:53.560Z,16.00
2023-05-14T07:25:20.591Z,15.80
2023-05-14T07:27:47.850Z,15.90
2023-05-14T07:30:14.996Z,15.90
2023-05-14T07:32:42.329Z,16.00
2023-05-14T07:35:10.275Z,15.70
2023-05-14T07:37:37.934Z,15.60
2023-05-14T07:40:05.670Z,15.90
2023-05-14T07:42:36.802Z,15.90
2023-05-14T07:45:05.588Z,16.00
2023-05-14T07:47:33.076Z,16.10
2023-05-14T07:50:00.484Z,16.20
2023-05-14T07:52:27.587Z,16.50
2023-05-14T07:54:55.202Z,16.60
2023-05-14T07:57:22.422Z,16.50
2023-05-14T07:59:49.796Z,16.40
2023-05-14T08:02:17.831Z,16.40
2023-05-14T08:04:45.430Z,16.30
2023-05-14T08:07:12.647Z,16.20
2023-05-14T08:09:40.097Z,16.40
2023-05-14T08:12:08.519Z,16.60
2023-05-14T08:14:35.716Z,16.60
2023-05-14T08:17:03.448Z,16.70
2023-05-14T08:19:30.646Z,16.70
2023-05-14T08:21:57.938Z,16.80
2023-05-14T08:24:24.966Z,16.70
2023-05-14T08:26:52.569Z,16.70
2023-05-14T08:29:19.631Z,16.70
2023-05-14T08:31:46.727Z,16.70
2023-05-14T08:34:13.761Z,16.60
2023-05-14T08:36:40.912Z,16.70
2023-05-14T08:39:08.038Z,16.60
2023-05-14T08:41:35.310Z,16.80
2023-05-14T08:44:26.036Z,17.00
2023-05-14T08:46:53.060Z,17.00
2023-05-14T08:49:41.986Z,16.90
2023-05-14T08:52:12.353Z,16.90
2023-05-14T08:54:40.777Z,16.90
2023-05-14T08:57:09.834Z,17.10
2023-05-14T08:59:37.040Z,17.20
2023-05-14T09:02:05.245Z,17.20
2023-05-14T09:04:32.616Z,17.10
2023-05-14T09:07:01.324Z,17.20
2023-05-14T09:09:28.603Z,17.30
2023-05-14T09:11:55.662Z,17.30
2023-05-14T09:14:23.298Z,17.40
2023-05-14T09:16:51.819Z,17.40
2023-05-14T09:19:19.880Z,17.40
2023-05-14T09:21:48.888Z,17.30
2023-05-14T09:24:29.249Z,17.30
2023-05-14T09:26:59.565Z,17.40
2023-05-14T09:29:28.401Z,17.50
2023-05-14T09:31:57.790Z,17.60
2023-05-14T09:34:29.830Z,17.70
2023-05-14T09:37:05.388Z,17.60
2023-05-14T09:39:33.239Z,17.80
2023-05-14T09:42:00.331Z,17.70
2023-05-14T09:44:27.605Z,17.70
2023-05-14T09:46:55.128Z,17.70
2023-05-14T09:49:22.634Z,17.80
2023-05-14T09:51:50.345Z,18.00
2023-05-14T09:54:17.746Z,18.10
2023-05-14T09:56:44.766Z,18.10
2023-05-14T09:59:11.818Z,18.10
2023-05-14T10:01:39.427Z,18.20
2023-05-14T10:04:08.092Z,18.30
2023-05-14T10:06:39.153Z,18.40
2023-05-14T10:09:13.254Z,18.50
2023-05-14T10:11:43.768Z,18.50
2023-05-14T10:14:21.317Z,18.50
2023-05-14T10:16:50.159Z,18.50
2023-05-14T10:19:18.561Z,18.60
2023-05-14T10:21:49.225Z,18.70
2023-05-14T10:24:16.260Z,18.90
2023-05-14T10:26:43.306Z,18.90
2023-05-14T10:29:10.788Z,18.90
2023-05-14T10:31:48.447Z,18.90
2023-05-14T10:34:48.339Z,19.00
2023-05-14T10:37:23.082Z,19.20
2023-05-14T10:39:57.060Z,19.20
2023-05-14T10:42:28.961Z,19.10
2023-05-14T10:44:58.866Z,19.20
2023-05-14T10:47:26.607Z,19.30
2023-05-14T10:49:55.636Z,19.50
2023-05-14T10:52:23.143Z,19.50
2023-05-14T10:54:51.623Z,19.60
2023-05-14T10:57:19.618Z,19.60
2023-05-14T10:59:53.358Z,19.60
2023-05-14T11:02:29.217Z,19.60
2023-05-14T11:05:01.050Z,19.50
2023-05-14T11:07:40.150Z,19.40
2023-05-14T11:10:09.450Z,19.50
2023-05-14T11:12:38.753Z,19.60
2023-05-14T11:15:10.414Z,19.70
2023-05-14T11:17:38.567Z,19.70
2023-05-14T11:20:06.734Z,19.70
2023-05-14T11:22:36.982Z,19.50
2023-05-14T11:25:04.594Z,19.50
2023-05-14T11:27:35.600Z,19.40
2023-05-14T11:30:03.337Z,19.50
2023-05-14T11:32:32.546Z,19.60
2023-05-14T11:34:59.559Z,19.80
2023-05-14T11:37:26.586Z,19.90
2023-05-14T11:39:55.242Z,20.00
2023-05-14T11:42:22.610Z,20.00
2023-05-14T11:44:52.015Z,20.10
2023-05-14T11:47:20.706Z,20.20
2023-05-14T11:49:48.791Z,20.30
2023-05-14T11:52:16.841Z,20.40
2023-05-14T11:54:44.700Z,20.30
2023-05-14T11:57:21.200Z,20.30
2023-05-14T11:59:50.158Z,20.10
2023-05-14T12:02:19.867Z,20.20
2023-05-14T12:04:54.136Z,20.20
2023-05-14T12:07:21.368Z,20.10
2023-05-14T12:09:50.163Z,20.20
2023-05-14T12:12:20.915Z,20.10
2023-05-14T12:14:49.215Z,20.30
2023-05-14T12:17:18.098Z,20.40
2023-05-14T12:19:46.807Z,20.40
2023-05-14T12:22:22.823Z,20.40
2023-05-14T12:25:00.546Z,20.50
2023-05-14T12:27:29.745Z,20.70
2023-05-14T12:30:20.535Z,20.80
2023-05-14T12:32:52.143Z,20.70
2023-05-14T12:35:21.322Z,20.70
2023-05-14T12:37:48.563Z,20.70
2023-05-14T12:40:15.690Z,20.70
2023-05-14T12:42:42.794Z,20.70
2023-05-14T12:45:10.742Z,20.50
2023-05-14T12:47:38.328Z,20.60
2023-05-14T12:50:06.516Z,20.50
2023-05-14T12:52:38.510Z,20.50
2023-05-14T12:55:09.303Z,20.50
2023-05-14T12:57:39.478Z,20.40
2023-05-14T13:00:09.879Z,20.50
2023-05-14T13:02:42.132Z,20.40
2023-05-14T13:05:14.110Z,20.40
2023-05-14T13:07:41.626Z,20.30
2023-05-14T13:10:09.562Z,20.40
2023-05-14T13:12:36.977Z,20.40
2023-05-14T13:15:04.552Z,20.50
2023-05-14T13:17:31.705Z,20.50
2023-05-14T13:19:58.821Z,20.40
2023-05-14T13:22:25.893Z,20.30
2023-05-14T13:24:53.032Z,20.30
2023-05-14T13:27:20.155Z,20.40
2023-05-14T13:29:47.292Z,20.40
2023-05-14T13:32:14.376Z,20.40
2023-05-14T13:34:41.607Z,20.50
2023-05-14T13:37:08.736Z,20.50
2023-05-14T13:39:36.013Z,20.50
2023-05-14T13:42:03.246Z,20.30
2023-05-14T13:44:30.540Z,20.30
2023-05-14T13:46:57.709Z,20.20
2023-05-14T13:49:24.798Z,20.30
2023-05-14T13:51:51.902Z,20.30
2023-05-14T13:54:19.004Z,20.30
2023-05-14T13:56:46.108Z,20.20
2023-05-14T13:59:13.235Z,20.20
2023-05-14T14:01:40.677Z,20.10
2023-05-14T14:04:10.912Z,20.20
2023-05-14T14:06:38.162Z,20.00
2023-05-14T14:09:05.218Z,20.10
2023-05-14T14:11:32.463Z,20.30
2023-05-14T14:13:59.588Z,20.40
2023-05-14T14:16:26.762Z,20.30
2023-05-14T14:18:53.871Z,20.20
2023-05-14T14:21:21.264Z,20.30
2023-05-14T14:23:48.518Z,20.30
2023-05-14T14:26:16.044Z,20.30
2023-05-14T14:28:43.237Z,20.30
2023-05-14T14:31:11.061Z,20.30
2023-05-14T14:33:38.560Z,20.20
2023-05-14T14:36:06.643Z,20.00
2023-05-14T14:38:33.780Z,20.00
2023-05-14T14:41:03.330Z,20.00
2023-05-14T14:43:30.777Z,19.90
2023-05-14T14:45:57.906Z,20.00
2023-05-14T14:48:39.563Z,20.00
2023-05-14T14:51:08.064Z,19.90
2023-05-14T14:53:36.387Z,20.00
2023-05-14T14:56:03.859Z,19.90
2023-05-14T14:58:31.364Z,19.90
2023-05-14T15:00:58.803Z,19.90
2023-05-14T15:03:26.838Z,20.00
2023-05-14T15:05:54.307Z,20.10
2023-05-14T15:08:29.388Z,20.00
2023-05-14T15:10:57.160Z,20.10
2023-05-14T15:13:24.875Z,20.10
2023-05-14T15:15:52.799Z,20.00
2023-05-14T15:18:20.157Z,20.10
2023-05-14T15:20:47.295Z,20.00
2023-05-14T15:23:14.693Z,20.10
2023-05-14T15:25:41.889Z,20.00
2023-05-14T15:28:09.057Z,20.00
2023-05-14T15:30:36.562Z,20.10
2023-05-14T15:33:03.727Z,19.90
2023-05-14T15:35:30.887Z,19.70
2023-05-14T15:37:58.125Z,19.70
2023-05-14T15:40:26.961Z,19.50
2023-05-14T15:42:54.267Z,19.50
2023-05-14T15:45:21.373Z,19.40
2023-05-14T15:47:48.559Z,19.20
2023-05-14T15:50:15.661Z,19.00
2023-05-14T15:52:42.678Z,18.80
2023-05-14T15:55:10.241Z,18.60
2023-05-14T15:57:37.833Z,18.60
2023-05-14T16:00:11.232Z,18.60
2023-05-14T16:02:39.674Z,18.40
2023-05-14T16:05:08.490Z,18.50
2023-05-14T16:07:36.478Z,18.40
2023-05-14T16:10:04.067Z,18.40
2023-05-14T16:12:31.406Z,18.20
2023-05-14T16:14:58.603Z,18.20
2023-05-14T16:17:27.928Z,18.10
2023-05-14T16:19:56.504Z,18.10
2023-05-14T16:22:23.818Z,18.10
2023-05-14T16:24:51.063Z,17.90
2023-05-14T16:27:19.302Z,17.80
2023-05-14T16:29:46.423Z,17.80
2023-05-14T16:32:13.733Z,17.60
2023-05-14T16:34:41.087Z,17.70
2023-05-14T16:37:08.525Z,17.70
2023-05-14T16:39:36.558Z,17.80
2023-05-14T16:42:03.909Z,17.70
2023-05-14T16:44:31.061Z,17.70
2023-05-14T16:46:58.261Z,17.70
2023-05-14T16:49:25.344Z,17.70
2023-05-14T16:51:52.606Z,17.80
2023-05-14T16:54:19.685Z,17.70
2023-05-14T16:56:49.785Z,17.80
2023-05-14T16:59:17.441Z,17.60
2023-05-14T17:01:45.307Z,17.70
2023-05-14T17:04:12.446Z,17.60
2023-05-14T17:06:39.661Z,17.60
2023-05-14T17:09:07.181Z,17.50
2023-05-14T17:11:34.257Z,17.40
2023-05-14T17:14:01.372Z,17.30
2023-05-14T17:16:28.709Z,17.30
2023-05-14T17:18:55.849Z,17.20
2023-05-14T17:21:22.889Z,17.10
2023-05-14T17:23:49.909Z,17.10
2023-05-14T17:26:16.890Z,17.00
2023-05-14T17:28:43.914Z,17.00
2023-05-14T17:31:10.999Z,17.00
2023-05-14T17:33:38.203Z,17.00
2023-05-14T17:36:05.438Z,16.90
2023-05-14T17:38:32.452Z,16.80
2023-05-14T17:40:59.589Z,16.80
2023-05-14T17:43:26.752Z,16.80
2023-05-14T17:45:54.729Z,16.80
2023-05-14T17:48:24.102Z,16.80
2023-05-14T17:50:52.113Z,16.80
2023-05-14T17:53:19.353Z,16.80
2023-05-14T17:55:46.633Z,16.70
2023-05-14T17:58:15.618Z,16.80
2023-05-14T18:00:43.834Z,16.80
2023-05-14T18:03:11.785Z,16.80
2023-05-14T18:05:39.097Z,16.80
2023-05-14T18:08:06.197Z,16.70
2023-05-14T18:10:33.382Z,16.60
2023-05-14T18:13:00.507Z,16.70
2023-05-14T18:15:27.674Z,16.70
2023-05-14T18:17:54.920Z,16.60
2023-05-14T18:20:22.102Z,16.60
2023-05-14T18:22:50.761Z,16.50
2023-05-14T18:25:17.816Z,16.30
2023-05-14T18:27:45.472Z,16.40
2023-05-14T18:30:13.936Z,16.40
2023-05-14T18:32:44.772Z,16.40
2023-05-14T18:35:12.580Z,16.40
2023-05-14T18:37:39.949Z,16.40
2023-05-14T18:40:07.894Z,16.30
2023-05-14T18:42:35.276Z,16.30
2023-05-14T18:45:02.456Z,16.10
2023-05-14T18:47:30.486Z,16.10
2023-05-14T18:49:59.669Z,16.10
2023-05-14T18:52:26.905Z,16.20
2023-05-14T18:54:55.036Z,16.10
2023-05-14T18:57:22.276Z,15.90
2023-05-14T18:59:49.355Z,15.90
2023-05-14T19:02:16.442Z,15.90
2023-05-14T19:04:52.482Z,15.90
2023-05-14T19:07:20.822Z,15.80
2023-05-14T19:09:47.975Z,15.70
2023-05-14T19:12:16.296Z,15.70
2023-05-14T19:14:43.414Z,15.70
2023-05-14T19:17:11.499Z,15.70
2023-05-14T19:19:39.596Z,15.60
2023-05-14T19:22:06.958Z,15.70
2023-05-14T19:24:34.125Z,15.50
2023-05-14T19:27:01.173Z,15.40
2023-05-14T19:29:28.192Z,15.40
2023-05-14T19:31:55.219Z,15.40
2023-05-14T19:34:22.250Z,15.30
2023-05-14T19:36:49.276Z,15.20
2023-05-14T19:39:16.358Z,15.10
2023-05-14T19:41:43.418Z,15.10
2023-05-14T19:44:10.912Z,15.00
2023-05-14T19:46:38.068Z,15.00
2023-05-14T19:49:05.138Z,15.00
2023-05-14T19:51:32.171Z,14.90
2023-05-14T19:53:59.209Z,14.80
2023-05-14T19:56:27.249Z,14.80
2023-05-14T19:58:54.614Z,14.80
2023-05-14T20:01:21.751Z,14.70
2023-05-14T20:03:48.896Z,14.70
2023-05-14T20:06:17.587Z,14.80
2023-05-14T20:08:45.573Z,14.70
2023-05-14T20:11:12.809Z,14.60
2023-05-14T20:13:39.903Z,14.60
2023-05-14T20:16:06.895Z,14.60
2023-05-14T20:18:33.969Z,14.60
2023-05-14T20:21:01.407Z,14.50
2023-05-14T20:23:28.579Z,14.60
2023-05-14T20:25:55.787Z,14.50
2023-05-14T20:28:22.806Z,14.50
2023-05-14T20:30:49.883Z,14.50
2023-05-14T20:33:17.156Z,14.50
2023-05-14T20:35:44.312Z,14.50
2023-05-14T20:38:12.971Z,14.40
2023-05-14T20:40:40.143Z,14.40
2023-05-14T20:43:07.179Z,14.40
2023-05-14T20:45:34.189Z,14.30
2023-05-14T20:48:01.455Z,14.20
2023-05-14T20:50:28.489Z,14.20
2023-05-14T20:52:55.487Z,14.20
2023-05-14T20:55:23.613Z,14.10
2023-05-14T20:57:51.059Z,14.10
2023-05-14T21:00:18.476Z,14.10
2023-05-14T21:02:45.577Z,14.10
2023-05-14T21:05:13.998Z,14.10
2023-05-14T21:07:41.341Z,14.10
2023-05-14T21:10:09.821Z,14.10
2023-05-14T21:12:36.934Z,14.10
2023-05-14T21:15:04.161Z,14.00
2023-05-14T21:17:31.418Z,14.10
2023-05-14T21:19:58.522Z,14.00
2023-05-14T21:22:26.641Z,14.00
2023-05-14T21:24:54.794Z,13.90
2023-05-14T21:27:22.118Z,13.80
2023-05-14T21:29:49.116Z,13.80
2023-05-14T21:32:16.240Z,13.90
2023-05-14T21:34:43.456Z,13.80
2023-05-14T21:37:11.049Z,13.80
2023-05-14T21:39:38.190Z,13.70
2023-05-14T21:42:05.342Z,13.70
2023-05-14T21:44:32.366Z,13.60
2023-05-14T21:46:59.533Z,13.60
2023-05-14T21:49:26.542Z,13.70
2023-05-14T21:51:54.728Z,13.60
2023-05-14T21:54:21.757Z,13.60
2023-05-14T21:56:48.769Z,13.50
2023-05-14T21:59:15.939Z,13.60
2023-05-14T22:04:13.229Z,13.50
2023-05-14T22:06:40.742Z,13.40
2023-05-14T22:09:10.933Z,13.50
2023-05-14T22:11:38.044Z,13.50
2023-05-14T22:14:05.079Z,13.50
2023-05-14T22:16:32.803Z,13.40
2023-05-14T22:18:59.979Z,13.50
2023-05-14T22:21:27.050Z,13.40
2023-05-14T22:23:54.125Z,13.40
2023-05-14T22:26:21.862Z,13.40
2023-05-14T22:28:49.784Z,13.40
2023-05-14T22:31:16.897Z,13.40
2023-05-14T22:33:43.966Z,13.30
2023-05-14T22:36:11.128Z,13.30
2023-05-14T22:38:38.560Z,13.30
2023-05-14T22:41:05.594Z,13.20
2023-05-14T22:43:32.627Z,13.20
2023-05-14T22:45:59.716Z,13.20
2023-05-14T22:48:26.718Z,13.10
2023-05-14T22:50:53.784Z,13.10
2023-05-14T22:53:20.801Z,13.00
2023-05-14T22:55:47.928Z,12.90
2023-05-14T22:58:14.955Z,12.80
2023-05-14T23:00:42.091Z,12.80
2023-05-14T23:03:09.560Z,12.90
2023-05-14T23:05:36.718Z,12.90
2023-05-14T23:08:03.969Z,12.90
2023-05-14T23:10:31.385Z,12.80
2023-05-14T23:12:58.410Z,12.90
2023-05-14T23:15:25.695Z,13.00
2023-05-14T23:17:53.012Z,13.00
2023-05-14T23:20:20.154Z,13.00
2023-05-14T23:22:47.208Z,13.00
2023-05-14T23:25:14.279Z,12.90
2023-05-14T23:27:41.284Z,12.90
2023-05-14T23:30:08.739Z,12.80
2023-05-14T23:32:35.767Z,12.90
2023-05-14T23:35:02.816Z,12.90
2023-05-14T23:37:29.804Z,13.00
2023-05-14T23:39:56.823Z,13.00
2023-05-14T23:42:24.946Z,13.00
2023-05-14T23:44:51.996Z,12.90
2023-05-14T23:47:19.092Z,12.90
2023-05-14T23:49:46.292Z,13.00
2023-05-14T23:52:13.322Z,13.00
2023-05-14T23:54:40.660Z,13.00
2023-05-14T23:57:07.973Z,12.90
2023-05-14T23:59:35.001Z,13.00
